Time;durP1;ratioP1;P1;durP2;ratioP2;P2;SDS_P1;SDS_P2;PMS_P1;PMS_P2;Temp;Humidity;BMP_temperature;BMP_pressure;BME280_temperature;BME280_humidity;BME280_pressure;Samples;Min_cycle;Max_cycle;Signal;HPM_P1;HPM_P2
2023/03/28 00:00:56;;;;;;;1999.90;999.90;;;0.80;99.90;;;;;;5032791;28;20045;-77
2023/03/28 00:03:21;;;;;;;1999.90;999.90;;;0.80;99.90;;;;;;5036198;28;20083;-77
2023/03/28 00:05:48;;;;;;;1999.90;999.90;;;0.90;99.90;;;;;;5035398;28;20087;-77
2023/03/28 00:08:15;;;;;;;1999.90;999.90;;;0.90;99.90;;;;;;5017316;28;20504;-77
2023/03/28 00:10:41;;;;;;;1999.90;999.90;;;0.90;99.90;;;;;;5029086;28;20096;-77
2023/03/28 00:13:08;;;;;;;1999.90;999.90;;;0.90;99.90;;;;;;5037337;28;20034;-77
2023/03/28 00:15:37;;;;;;;1999.90;999.90;;;0.80;99.90;;;;;;5037075;28;20045;-77
2023/03/28 00:18:04;;;;;;;1999.90;999.90;;;0.70;99.90;;;;;;5037042;28;20495;-77
2023/03/28 00:20:30;;;;;;;1999.90;999.90;;;0.70;99.90;;;;;;5016964;28;20042;-77
2023/03/28 00:22:56;;;;;;;1999.90;999.90;;;0.70;99.90;;;;;;5017353;28;20038;-77
2023/03/28 00:25:22;;;;;;;1999.90;999.90;;;0.70;99.90;;;;;;5023080;28;20042;-77
2023/03/28 00:27:48;;;;;;;1999.90;999.90;;;0.70;99.90;;;;;;5037000;28;20488;-77
2023/03/28 00:30:13;;;;;;;1999.90;999.90;;;0.70;99.90;;;;;;5036877;28;20038;-77
2023/03/28 00:32:39;;;;;;;1999.90;999.90;;;0.60;99.90;;;;;;5025518;28;20041;-77
2023/03/28 00:35:05;;;;;;;1999.90;999.90;;;0.50;99.90;;;;;;5036571;28;20104;-77
2023/03/28 00:37:31;;;;;;;1999.90;999.90;;;0.40;99.90;;;;;;5029467;28;20041;-77
2023/03/28 00:39:58;;;;;;;1999.90;999.90;;;0.50;99.90;;;;;;5015678;28;20144;-77
2023/03/28 00:42:24;;;;;;;1999.90;999.90;;;0.50;99.90;;;;;;5017121;28;20485;-77
2023/03/28 00:44:56;;;;;;;1999.90;999.90;;;0.40;99.90;;;;;;5016577;28;20038;-77
2023/03/28 00:47:32;;;;;;;1999.90;999.90;;;0.50;99.90;;;;;;5027960;28;20026;-77
2023/03/28 00:50:02;;;;;;;1999.90;999.90;;;0.50;99.90;;;;;;5034815;28;20034;-77
2023/03/28 00:52:32;;;;;;;1999.90;999.90;;;0.60;99.90;;;;;;5036746;28;20492;-77
2023/03/28 00:54:59;;;;;;;1999.90;999.90;;;0.70;99.90;;;;;;5036286;28;20618;-77
2023/03/28 00:57:26;;;;;;;1999.90;999.90;;;0.80;99.90;;;;;;5036220;28;20072;-77
2023/03/28 00:59:52;;;;;;;1999.90;999.90;;;0.90;99.90;;;;;;5020603;28;20088;-77
2023/03/28 01:02:18;;;;;;;1999.90;999.90;;;0.90;99.90;;;;;;5016520;28;20175;-77
2023/03/28 01:04:53;;;;;;;1999.90;999.90;;;1.00;99.90;;;;;;5016426;28;20034;-77
2023/03/28 01:07:19;;;;;;;1999.90;999.90;;;1.00;99.90;;;;;;5016026;28;20049;-77
2023/03/28 01:09:46;;;;;;;1999.90;999.90;;;1.00;99.90;;;;;;5015026;28;20381;-76
2023/03/28 01:12:14;;;;;;;1999.90;999.90;;;1.00;99.90;;;;;;5016696;28;20049;-77
2023/03/28 01:14:42;;;;;;;1999.90;999.90;;;1.00;99.90;;;;;;5016318;28;20030;-77
2023/03/28 01:17:09;;;;;;;1999.90;999.90;;;1.00;99.90;;;;;;5016207;28;20034;-77
2023/03/28 01:20:01;;;;;;;1999.90;999.90;;;0.90;99.90;;;;;;5015278;28;20030;-77
2023/03/28 01:23:04;;;;;;;1999.90;999.90;;;0.90;99.90;;;;;;5014068;28;20046;-77
2023/03/28 01:25:45;;;;;;;1999.90;999.90;;;0.90;99.90;;;;;;5016157;28;20448;-77
2023/03/28 01:28:37;;;;;;;1999.90;999.90;;;0.80;99.90;;;;;;5016326;28;20030;-76
2023/03/28 01:31:33;;;;;;;1999.90;999.90;;;0.70;99.90;;;;;;5016547;28;20027;-77
2023/03/28 01:34:19;;;;;;;1999.90;999.90;;;0.60;99.90;;;;;;5020923;28;20042;-77
2023/03/28 01:37:09;;;;;;;1999.90;999.90;;;0.50;99.90;;;;;;5035614;28;20034;-77
2023/03/28 01:40:10;;;;;;;1999.90;999.90;;;0.50;99.90;;;;;;5036844;28;20042;-84
2023/03/28 01:43:13;;;;;;;1999.90;999.90;;;0.50;99.90;;;;;;5024113;28;20523;-76
2023/03/28 01:46:03;;;;;;;1999.90;999.90;;;0.50;99.90;;;;;;5015722;28;20035;-77
2023/03/28 01:48:34;;;;;;;1999.90;999.90;;;0.40;99.90;;;;;;5027262;28;21251;-77
2023/03/28 01:51:03;;;;;;;1999.90;999.90;;;0.30;99.90;;;;;;5034251;28;20038;-76
2023/03/28 01:53:44;;;;;;;1999.90;999.90;;;0.30;99.90;;;;;;5024965;28;20092;-77
2023/03/28 01:56:34;;;;;;;1999.90;999.90;;;0.30;99.90;;;;;;5035307;28;20069;-77
2023/03/28 01:59:14;;;;;;;1999.90;999.90;;;0.30;99.90;;;;;;5016932;28;20354;-77
2023/03/28 02:01:52;;;;;;;1999.90;999.90;;;0.30;99.90;;;;;;5062090;22;20033;-81
2023/03/28 02:04:22;;;;;;;1999.90;999.90;;;0.30;99.90;;;;;;5054012;28;20045;-82
2023/03/28 02:06:51;;;;;;;1999.90;999.90;;;0.30;99.90;;;;;;5054760;28;20037;-81
2023/03/28 02:09:21;;;;;;;1999.90;999.90;;;0.30;99.90;;;;;;5054600;28;20037;-81
2023/03/28 02:11:51;;;;;;;1999.90;999.90;;;0.20;99.90;;;;;;5047246;28;20070;-81
2023/03/28 02:14:21;;;;;;;1999.90;999.90;;;0.10;99.90;;;;;;5035638;28;20034;-81
2023/03/28 02:16:53;;;;;;;1999.90;999.90;;;0.10;99.90;;;;;;5034631;28;20034;-82
2023/03/28 02:19:23;;;;;;;1999.90;999.90;;;0.10;99.90;;;;;;5036002;28;20744;-82
2023/03/28 02:22:09;;;;;;;1999.90;999.90;;;0.10;99.90;;;;;;5034593;28;20069;-81
2023/03/28 02:24:35;;;;;;;1999.90;999.90;;;0.00;99.90;;;;;;5034166;28;20073;-82
2023/03/28 02:27:01;;;;;;;1999.90;999.90;;;0.00;99.90;;;;;;5034941;28;20149;-81
2023/03/28 02:29:29;;;;;;;1999.90;999.90;;;0.00;99.90;;;;;;5034551;28;20553;-81
2023/03/28 02:31:55;;;;;;;1999.90;999.90;;;-0.10;99.90;;;;;;5038078;28;20125;-81
2023/03/28 02:34:21;;;;;;;1999.90;999.90;;;-0.10;99.90;;;;;;5050294;28;20054;-81
2023/03/28 02:36:52;;;;;;;1999.90;999.90;;;-0.20;99.90;;;;;;5038741;28;20049;-82
2023/03/28 02:39:33;;;;;;;1999.90;999.90;;;-0.20;99.90;;;;;;5037027;28;20041;-82
2023/03/28 02:42:29;;;;;;;1999.90;999.90;;;-0.20;99.90;;;;;;5038385;28;20073;-82
2023/03/28 02:45:25;;;;;;;1999.90;999.90;;;-0.20;99.90;;;;;;5038389;28;20094;-81
2023/03/28 02:48:23;;;;;;;1999.90;999.90;;;-0.20;99.90;;;;;;5036612;28;20122;-82
2023/03/28 02:51:22;;;;;;;1999.90;999.90;;;-0.10;99.90;;;;;;5037298;28;20030;-82
2023/03/28 02:54:02;;;;;;;1999.90;999.90;;;-0.10;99.90;;;;;;5037569;28;20072;-82
2023/03/28 02:56:50;;;;;;;1999.90;999.90;;;-0.20;99.90;;;;;;5037690;28;20128;-82
2023/03/28 02:59:26;;;;;;;1999.90;999.90;;;-0.20;99.90;;;;;;5040342;28;20034;-81
2023/03/28 03:01:52;;;;;;;1999.90;999.90;;;-0.20;99.90;;;;;;5037737;28;20045;-81
2023/03/28 03:04:18;;;;;;;1999.90;999.90;;;-0.30;99.90;;;;;;5037293;28;20113;-82
2023/03/28 03:06:49;;;;;;;1999.90;999.90;;;-0.30;99.90;;;;;;5034495;28;20029;-81
2023/03/28 03:09:16;;;;;;;1999.90;999.90;;;-0.20;99.90;;;;;;5035174;28;20807;-81
2023/03/28 03:11:42;;;;;;;1999.90;999.90;;;-0.30;99.90;;;;;;5036342;28;20088;-82
2023/03/28 03:14:07;;;;;;;1999.90;999.90;;;-0.30;99.90;;;;;;5022874;28;20034;-82
2023/03/28 03:16:33;;;;;;;1999.90;999.90;;;-0.30;99.90;;;;;;5019852;28;20085;-82
2023/03/28 03:18:59;;;;;;;1999.90;999.90;;;-0.50;99.90;;;;;;5018337;28;20034;-82
2023/03/28 03:21:25;;;;;;;1999.90;999.90;;;-0.50;99.90;;;;;;5020159;28;20104;-81
2023/03/28 03:23:51;;;;;;;1999.90;999.90;;;-0.60;99.90;;;;;;5027933;28;20499;-81
2023/03/28 03:26:16;;;;;;;1999.90;999.90;;;-0.70;99.90;;;;;;5018775;28;20104;-82
2023/03/28 03:28:43;;;;;;;1999.90;999.90;;;-0.70;99.90;;;;;;5020374;28;20085;-81
2023/03/28 03:31:09;;;;;;;1999.90;999.90;;;-0.70;99.90;;;;;;5020709;28;20030;-82
2023/03/28 03:33:36;;;;;;;1999.90;999.90;;;-0.70;99.90;;;;;;5039710;28;20488;-82
2023/03/28 03:36:03;;;;;;;1999.90;999.90;;;-0.70;99.90;;;;;;5038559;28;20518;-81
2023/03/28 03:38:29;;;;;;;1999.90;999.90;;;-0.70;99.90;;;;;;5039062;28;20041;-82
2023/03/28 03:40:54;;;;;;;1999.90;999.90;;;-0.70;99.90;;;;;;5038354;28;20446;-81
2023/03/28 03:43:20;;;;;;;1999.90;999.90;;;-0.80;99.90;;;;;;5038367;28;20093;-81
2023/03/28 03:45:45;;;;;;;1999.90;999.90;;;-0.90;99.90;;;;;;5038472;28;20037;-82
2023/03/28 03:48:11;;;;;;;1999.90;999.90;;;-0.80;99.90;;;;;;5040648;28;20040;-82
2023/03/28 03:50:37;;;;;;;1999.90;999.90;;;-0.70;99.90;;;;;;5038529;28;20499;-81
2023/03/28 03:53:03;;;;;;;1999.90;999.90;;;-0.80;99.90;;;;;;5038556;28;20080;-81
2023/03/28 03:55:29;;;;;;;1999.90;999.90;;;-0.90;99.90;;;;;;5040763;28;20038;-81
2023/03/28 03:57:54;;;;;;;1999.90;999.90;;;-0.90;99.90;;;;;;5040563;28;20030;-82
2023/03/28 04:00:20;;;;;;;1999.90;999.90;;;-0.80;99.90;;;;;;5039342;28;20061;-81
2023/03/28 04:02:46;;;;;;;1999.90;999.90;;;-0.80;99.90;;;;;;5039786;28;20456;-81
2023/03/28 04:05:12;;;;;;;1999.90;999.90;;;-0.90;99.90;;;;;;5038950;28;20030;-81
2023/03/28 04:07:37;;;;;;;1999.90;999.90;;;-0.80;99.90;;;;;;5038872;28;20038;-81
2023/03/28 04:10:04;;;;;;;1999.90;999.90;;;-0.90;99.90;;;;;;5038929;28;20034;-82
2023/03/28 04:12:30;;;;;;;1999.90;999.90;;;-1.00;99.90;;;;;;5040673;28;20045;-82
2023/03/28 04:14:55;;;;;;;1999.90;999.90;;;-1.00;99.90;;;;;;5038889;28;20030;-81
2023/03/28 04:17:22;;;;;;;1999.90;999.90;;;-1.00;99.90;;;;;;5039385;28;20065;-81
2023/03/28 04:19:48;;;;;;;1999.90;999.90;;;-1.00;99.90;;;;;;5039175;28;20041;-81
2023/03/28 04:22:17;;;;;;;1999.90;999.90;;;-1.20;99.90;;;;;;5039109;28;20038;-81
2023/03/28 04:24:43;;;;;;;1999.90;999.90;;;-1.30;99.90;;;;;;5036787;28;20033;-81
2023/03/28 04:27:09;;;;;;;1999.90;999.90;;;-1.20;99.90;;;;;;5037437;28;20042;-81
2023/03/28 04:29:35;;;;;;;1999.90;999.90;;;-1.30;99.90;;;;;;5036912;28;20069;-80
2023/03/28 04:32:04;;;;;;;1999.90;999.90;;;-1.20;99.90;;;;;;5036898;28;20042;-81
2023/03/28 04:34:32;;;;;;;1999.90;999.90;;;-1.30;99.90;;;;;;5036532;28;20517;-81
2023/03/28 04:37:02;;;;;;;1999.90;999.90;;;-1.30;99.90;;;;;;5038662;28;20526;-81
2023/03/28 04:39:29;;;;;;;1999.90;999.90;;;-1.30;99.90;;;;;;5042681;28;20034;-80
2023/03/28 04:41:55;;;;;;;1999.90;999.90;;;-1.40;99.90;;;;;;5061639;28;20026;-78
2023/03/28 04:44:21;;;;;;;1999.90;999.90;;;-1.30;99.90;;;;;;5044631;28;20081;-81
2023/03/28 04:46:47;;;;;;;1999.90;999.90;;;-1.30;99.90;;;;;;5039398;28;20038;-81
2023/03/28 04:49:13;;;;;;;1999.90;999.90;;;-1.30;99.90;;;;;;5039547;28;20029;-80
2023/03/28 04:51:39;;;;;;;1999.90;999.90;;;-1.30;99.90;;;;;;5038502;28;20511;-80
2023/03/28 04:54:05;;;;;;;1999.90;999.90;;;-1.20;99.90;;;;;;5039542;28;20041;-80
2023/03/28 04:56:30;;;;;;;1999.90;999.90;;;-1.30;99.90;;;;;;5041685;28;20048;-80
2023/03/28 04:58:56;;;;;;;1999.90;999.90;;;-1.20;99.90;;;;;;5052032;28;20045;-80
2023/03/28 05:01:24;;;;;;;1999.90;999.90;;;-1.10;99.90;;;;;;5050012;28;20092;-79
2023/03/28 05:03:50;;;;;;;1999.90;999.90;;;-1.30;99.90;;;;;;5050829;28;20045;-80
2023/03/28 05:06:15;;;;;;;1999.90;999.90;;;-1.20;99.90;;;;;;5051021;28;20064;-80
2023/03/28 05:08:42;;;;;;;1999.90;999.90;;;-1.30;99.90;;;;;;5049058;28;20030;-80
2023/03/28 05:11:08;;;;;;;1999.90;999.90;;;-1.30;99.90;;;;;;5050992;28;20049;-80
2023/03/28 05:13:34;;;;;;;1999.90;999.90;;;-1.30;99.90;;;;;;5045180;28;20566;-81
2023/03/28 05:15:59;;;;;;;1999.90;999.90;;;-1.30;99.90;;;;;;5036546;28;20041;-80
2023/03/28 05:18:25;;;;;;;1999.90;999.90;;;-1.10;99.90;;;;;;5037921;28;20037;-81
2023/03/28 05:20:51;;;;;;;1999.90;999.90;;;-1.10;99.90;;;;;;5038636;28;20557;-81
2023/03/28 05:23:17;;;;;;;1999.90;999.90;;;-1.10;99.90;;;;;;5038883;28;20045;-80
2023/03/28 05:25:42;;;;;;;1999.90;999.90;;;-1.20;99.90;;;;;;5037954;28;20042;-81
2023/03/28 05:28:08;;;;;;;1999.90;999.90;;;-1.10;99.90;;;;;;5038219;28;20411;-81
2023/03/28 05:30:34;;;;;;;1999.90;999.90;;;-1.20;99.90;;;;;;5039912;28;20038;-80
2023/03/28 05:33:00;;;;;;;1999.90;999.90;;;-1.20;99.90;;;;;;5038926;28;20034;-81
2023/03/28 05:35:25;;;;;;;1999.90;999.90;;;-1.10;99.90;;;;;;5036659;28;20033;-80
2023/03/28 05:37:51;;;;;;;1999.90;999.90;;;-1.10;99.90;;;;;;5038362;28;20032;-81
2023/03/28 05:40:17;;;;;;;1999.90;999.90;;;-1.10;99.90;;;;;;5041737;28;20045;-81
2023/03/28 05:42:42;;;;;;;1999.90;999.90;;;-1.00;99.90;;;;;;5043400;28;20038;-80
2023/03/28 05:45:11;;;;;;;1999.90;999.90;;;-1.00;99.90;;;;;;5040965;28;20060;-81
2023/03/28 05:47:39;;;;;;;1999.90;999.90;;;-0.90;99.90;;;;;;5040138;28;20038;-81
2023/03/28 05:50:06;;;;;;;1999.90;999.90;;;-0.90;99.90;;;;;;5042571;28;20037;-79
2023/03/28 05:52:31;;;;;;;1999.90;999.90;;;-0.90;99.90;;;;;;5041248;28;20117;-81
2023/03/28 05:54:57;;;;;;;1999.90;999.90;;;-0.90;99.90;;;;;;5042017;28;20113;-81
2023/03/28 05:57:23;;;;;;;1999.90;999.90;;;-0.90;99.90;;;;;;5042662;28;20081;-81
2023/03/28 05:59:50;;;;;;;1999.90;999.90;;;-0.90;99.90;;;;;;5041155;28;20053;-81
2023/03/28 06:02:17;;;;;;;1999.90;999.90;;;-1.00;99.90;;;;;;5038752;28;20077;-80
2023/03/28 06:04:43;;;;;;;1999.90;999.90;;;-0.90;99.90;;;;;;5036780;28;20038;-81
2023/03/28 06:07:10;;;;;;;1999.90;999.90;;;-0.90;99.90;;;;;;5038646;28;20030;-81
2023/03/28 06:09:36;;;;;;;1999.90;999.90;;;-0.90;99.90;;;;;;5040366;28;20030;-80
2023/03/28 06:12:04;;;;;;;1999.90;999.90;;;-1.00;99.90;;;;;;5039323;28;20479;-81
2023/03/28 06:14:30;;;;;;;1999.90;999.90;;;-0.80;99.90;;;;;;5038353;28;20530;-81
2023/03/28 06:16:56;;;;;;;1999.90;999.90;;;-0.80;99.90;;;;;;5037916;28;20030;-81
2023/03/28 06:19:21;;;;;;;1999.90;999.90;;;-0.80;99.90;;;;;;5039251;28;20488;-81
2023/03/28 06:21:47;;;;;;;1999.90;999.90;;;-0.70;99.90;;;;;;5038526;28;20038;-81
2023/03/28 06:24:12;;;;;;;1999.90;999.90;;;-0.70;99.90;;;;;;5038543;28;20038;-81
2023/03/28 06:26:38;;;;;;;1999.90;999.90;;;-0.70;99.90;;;;;;5038842;28;20442;-81
2023/03/28 06:29:05;;;;;;;1999.90;999.90;;;-0.60;99.90;;;;;;5037971;28;20483;-81
2023/03/28 06:31:30;;;;;;;1999.90;999.90;;;-0.40;99.90;;;;;;5039884;28;20061;-81
2023/03/28 06:33:56;;;;;;;1999.90;999.90;;;-0.40;99.90;;;;;;5038001;28;20038;-81
2023/03/28 06:36:21;;;;;;;1999.90;999.90;;;-0.30;99.90;;;;;;5036550;28;20029;-81
2023/03/28 06:38:48;;;;;;;1999.90;999.90;;;-0.20;99.90;;;;;;5038201;28;20392;-81
2023/03/28 06:41:15;;;;;;;1999.90;999.90;;;-0.10;99.90;;;;;;5037101;28;20072;-80
2023/03/28 06:43:40;;;;;;;1999.90;999.90;;;0.00;99.90;;;;;;5037203;28;20060;-81
2023/03/28 06:46:06;;;;;;;1999.90;999.90;;;0.10;99.90;;;;;;5035215;28;20041;-81
2023/03/28 06:48:32;;;;;;;1999.90;999.90;;;0.20;99.90;;;;;;5056622;28;20065;-80
2023/03/28 06:50:57;;;;;;;1999.90;999.90;;;0.30;99.90;;;;;;5049339;28;20046;-80
2023/03/28 06:53:24;;;;;;;1999.90;999.90;;;0.40;99.90;;;;;;5038375;28;20038;-79
2023/03/28 06:55:50;;;;;;;1999.90;999.90;;;0.50;99.90;;;;;;5038849;28;20586;-80
2023/03/28 06:58:16;;;;;;;1999.90;999.90;;;0.60;99.90;;;;;;5039118;28;20751;-80
2023/03/28 07:00:42;;;;;;;1999.90;999.90;;;0.70;99.90;;;;;;5039265;28;20049;-81
2023/03/28 07:03:10;;;;;;;1999.90;999.90;;;0.80;99.90;;;;;;5039983;28;20034;-81
2023/03/28 07:05:40;;;;;;;1999.90;999.90;;;0.90;99.90;;;;;;5040264;28;20749;-81
2023/03/28 07:08:07;;;;;;;1999.90;999.90;;;0.90;99.90;;;;;;5037013;28;20518;-80
2023/03/28 07:10:33;;;;;;;1999.90;999.90;;;1.10;99.90;;;;;;5036753;28;20065;-80
2023/03/28 07:12:59;;;;;;;1999.90;999.90;;;1.20;99.90;;;;;;5037567;28;20073;-81
2023/03/28 07:15:24;;;;;;;1999.90;999.90;;;1.20;99.90;;;;;;5040987;28;20026;-80
2023/03/28 07:17:52;;;;;;;1999.90;999.90;;;1.30;99.90;;;;;;5038477;28;20546;-82
2023/03/28 07:20:18;;;;;;;1999.90;999.90;;;1.50;99.90;;;;;;5037114;28;20030;-82
2023/03/28 07:22:43;;;;;;;1999.90;999.90;;;1.60;99.90;;;;;;5036747;28;20061;-82
2023/03/28 07:25:09;;;;;;;1999.90;999.90;;;1.70;99.90;;;;;;5036583;28;20038;-82
2023/03/28 07:27:35;;;;;;;1999.90;999.90;;;1.80;99.90;;;;;;5037902;28;20041;-82
2023/03/28 07:30:00;;;;;;;1999.90;999.90;;;1.90;99.90;;;;;;5038087;28;20045;-82
2023/03/28 07:32:26;;;;;;;1999.90;999.90;;;2.00;99.90;;;;;;5043447;28;20042;-83
2023/03/28 07:34:52;;;;;;;1999.90;999.90;;;2.10;99.90;;;;;;5034493;28;20022;-81
2023/03/28 07:37:17;;;;;;;1999.90;999.90;;;2.20;99.90;;;;;;5034926;28;20434;-80
2023/03/28 07:39:43;;;;;;;1999.90;999.90;;;2.30;99.90;;;;;;5036231;28;20411;-82
2023/03/28 07:42:10;;;;;;;1999.90;999.90;;;2.40;99.90;;;;;;5034423;28;20117;-82
2023/03/28 07:44:36;;;;;;;1999.90;999.90;;;2.50;99.90;;;;;;5037439;28;20026;-81
2023/03/28 07:47:01;;;;;;;1999.90;999.90;;;2.60;99.90;;;;;;5034164;28;20033;-81
2023/03/28 07:49:27;;;;;;;1999.90;999.90;;;2.60;99.90;;;;;;5036112;28;20042;-81
2023/03/28 07:51:52;;;;;;;1999.90;999.90;;;2.70;99.90;;;;;;5035864;28;20037;-78
2023/03/28 07:54:18;;;;;;;1999.90;999.90;;;2.90;99.90;;;;;;5034743;28;20029;-83
2023/03/28 07:56:44;;;;;;;1999.90;999.90;;;2.90;99.90;;;;;;5036202;28;20038;-81
2023/03/28 07:59:12;;;;;;;1999.90;999.90;;;3.00;99.90;;;;;;5035768;28;20058;-80
2023/03/28 08:01:42;;;;;;;1999.90;999.90;;;3.10;99.90;;;;;;5037892;28;20530;-80
2023/03/28 08:04:10;;;;;;;1999.90;999.90;;;3.20;99.90;;;;;;5039508;28;20113;-81
2023/03/28 08:06:39;;;;;;;1999.90;999.90;;;3.20;99.90;;;;;;5038289;28;20038;-80
2023/03/28 08:09:06;;;;;;;1999.90;999.90;;;3.20;99.90;;;;;;5039365;28;20549;-80
2023/03/28 08:11:33;;;;;;;1999.90;999.90;;;3.30;99.90;;;;;;5037903;28;20049;-77
2023/03/28 08:14:00;;;;;;;1999.90;999.90;;;3.50;99.90;;;;;;5037092;28;20041;-77
2023/03/28 08:16:26;;;;;;;1999.90;999.90;;;3.60;99.90;;;;;;5035753;28;20041;-77
2023/03/28 08:18:51;;;;;;;1999.90;999.90;;;3.70;99.90;;;;;;5037035;28;20026;-77
2023/03/28 08:21:17;;;;;;;1999.90;999.90;;;3.90;99.90;;;;;;5036993;28;20042;-77
2023/03/28 08:23:43;;;;;;;1999.90;999.90;;;3.90;99.90;;;;;;5035652;28;20030;-77
2023/03/28 08:26:09;;;;;;;1999.90;999.90;;;4.00;99.90;;;;;;5035303;28;20057;-77
2023/03/28 08:28:36;;;;;;;1999.90;999.90;;;4.10;99.90;;;;;;5035564;28;20116;-78
2023/03/28 08:31:12;;;;;;;1999.90;999.90;;;4.20;99.90;;;;;;5037685;28;20467;-77
2023/03/28 08:33:39;;;;;;;1999.90;999.90;;;4.30;99.90;;;;;;5037176;28;20165;-75
2023/03/28 08:36:05;;;;;;;1999.90;999.90;;;4.40;99.90;;;;;;5036001;28;20041;-78
2023/03/28 08:38:31;;;;;;;1999.90;999.90;;;4.50;99.90;;;;;;5035336;28;20566;-78
2023/03/28 08:41:39;;;;;;;1999.90;999.90;;;4.50;99.90;;;;;;5035273;28;20046;-77
2023/03/28 08:44:36;;;;;;;1999.90;999.90;;;4.70;99.90;;;;;;5036678;28;20030;-76
2023/03/28 08:47:29;;;;;;;1999.90;999.90;;;4.90;99.90;;;;;;5036803;28;20041;-76
2023/03/28 08:50:00;;;;;;;1999.90;999.90;;;5.10;99.90;;;;;;5035323;28;20050;-76
2023/03/28 08:52:27;;;;;;;1999.90;999.90;;;5.30;99.90;;;;;;5036669;28;20121;-75
2023/03/28 08:55:05;;;;;;;1999.90;999.90;;;5.30;99.90;;;;;;5036443;28;20559;-75
2023/03/28 08:57:34;;;;;;;1999.90;999.90;;;5.30;99.90;;;;;;5036150;28;20037;-77
2023/03/28 09:00:25;;;;;;;1999.90;999.90;;;5.00;99.90;;;;;;5058796;28;20121;-75
2023/03/28 09:02:50;;;;;;;1999.90;999.90;;;5.00;99.90;;;;;;5040770;28;20046;-76
2023/03/28 09:05:31;;;;;;;1999.90;999.90;;;5.10;99.90;;;;;;5037214;28;20113;-77
2023/03/28 09:08:09;;;;;;;1999.90;999.90;;;5.20;99.90;;;;;;5035269;28;20483;-76
2023/03/28 09:10:42;;;;;;;1999.90;999.90;;;5.40;99.90;;;;;;5035191;28;20518;-76
2023/03/28 09:13:38;;;;;;;1999.90;999.90;;;5.60;99.90;;;;;;5035164;28;20046;-76
2023/03/28 09:16:28;;;;;;;1999.90;999.90;;;5.50;99.90;;;;;;5034288;28;20041;-76
2023/03/28 09:19:30;;;;;;;1999.90;999.90;;;5.70;99.90;;;;;;5036673;28;20030;-76
2023/03/28 09:22:15;;;;;;;1999.90;999.90;;;5.80;99.90;;;;;;5036302;28;20045;-77
2023/03/28 09:25:02;;;;;;;1999.90;999.90;;;5.80;99.90;;;;;;5034656;28;20034;-76
2023/03/28 09:27:34;;;;;;;1999.90;999.90;;;5.90;99.90;;;;;;5036422;28;20129;-77
2023/03/28 09:30:16;;;;;;;1999.90;999.90;;;6.00;99.90;;;;;;5035660;28;20042;-75
2023/03/28 09:32:43;;;;;;;1999.90;999.90;;;6.20;99.90;;;;;;5036915;28;20537;-77
2023/03/28 09:35:15;;;;;;;1999.90;999.90;;;6.40;99.90;;;;;;5036033;28;20042;-77
2023/03/28 09:37:44;;;;;;;1999.90;999.90;;;6.50;99.90;;;;;;5036345;28;20451;-77
2023/03/28 09:40:28;;;;;;;1999.90;999.90;;;6.80;99.90;;;;;;5034560;28;20076;-77
2023/03/28 09:43:35;;;;;;;1999.90;999.90;;;7.10;99.90;;;;;;5034238;28;20072;-77
2023/03/28 09:46:04;;;;;;;1999.90;999.90;;;7.10;98.50;;;;;;5029704;28;20042;-77
2023/03/28 09:48:32;;;;;;;1999.90;999.90;;;7.10;97.60;;;;;;5035711;28;20089;-77
2023/03/28 09:50:58;;;;;;;1999.90;999.90;;;7.40;97.80;;;;;;5034061;28;20030;-77
2023/03/28 09:53:29;;;;;;;1999.90;999.90;;;7.40;98.50;;;;;;5034272;28;20419;-77
2023/03/28 09:56:26;;;;;;;1999.90;999.90;;;7.50;97.40;;;;;;5035624;28;20124;-77
2023/03/28 09:58:53;;;;;;;1999.90;999.90;;;7.70;98.10;;;;;;5031539;28;20041;-77
2023/03/28 10:01:44;;;;;;;1999.90;999.90;;;7.90;93.90;;;;;;5034637;28;20488;-77
2023/03/28 10:04:10;;;;;;;1999.90;999.90;;;8.10;94.80;;;;;;5033920;28;20120;-77
2023/03/28 10:06:37;;;;;;;1999.90;999.90;;;8.30;95.80;;;;;;5035572;28;20125;-77
2023/03/28 10:09:19;;;;;;;1999.90;999.90;;;8.60;94.00;;;;;;5034098;28;20030;-78
2023/03/28 10:11:58;;;;;;;1999.90;999.90;;;8.70;92.80;;;;;;5033883;28;20033;-77
2023/03/28 10:14:45;;;;;;;1999.90;999.90;;;8.80;91.70;;;;;;5033854;28;20046;-77
2023/03/28 10:17:26;;;;;;;1999.90;999.90;;;8.80;91.90;;;;;;5033812;28;20042;-78
2023/03/28 10:20:00;;;;;;;1999.90;999.90;;;8.70;93.70;;;;;;5035545;28;20034;-77
2023/03/28 10:22:31;;;;;;;1999.90;999.90;;;8.80;93.00;;;;;;5035041;28;20154;-78
2023/03/28 10:24:57;;;;;;;1999.90;999.90;;;9.20;92.80;;;;;;5035076;28;20561;-78
2023/03/28 10:27:30;;;;;;;1999.90;999.90;;;9.40;90.20;;;;;;5033723;28;20033;-77
2023/03/28 10:30:06;;;;;;;1999.90;999.90;;;9.20;91.90;;;;;;5035366;28;20785;-77
2023/03/28 10:32:32;;;;;;;1999.90;999.90;;;9.20;90.60;;;;;;5033573;28;20511;-77
2023/03/28 10:35:26;;;;;;;1999.90;999.90;;;9.20;89.60;;;;;;5033221;28;20041;-77
2023/03/28 10:37:56;;;;;;;1999.90;999.90;;;8.80;93.00;;;;;;5033699;28;20044;-77
2023/03/28 10:40:28;;;;;;;1999.90;999.90;;;8.70;92.30;;;;;;5033350;28;20033;-77
2023/03/28 10:42:55;;;;;;;1999.90;999.90;;;9.10;91.20;;;;;;5033548;28;20038;-77
2023/03/28 10:45:35;;;;;;;1999.90;999.90;;;9.30;91.20;;;;;;5033340;28;20404;-77
2023/03/28 10:48:10;;;;;;;1999.90;999.90;;;9.60;90.10;;;;;;5034901;28;20096;-78
2023/03/28 10:50:42;;;;;;;1999.90;999.90;;;10.00;89.30;;;;;;5035018;28;20041;-77
2023/03/28 10:53:23;;;;;;;1999.90;999.90;;;10.20;90.80;;;;;;5034851;28;20041;-78
2023/03/28 10:56:03;;;;;;;1999.90;999.90;;;10.00;86.60;;;;;;5032882;28;20038;-77
2023/03/28 10:58:37;;;;;;;1999.90;999.90;;;9.50;83.00;;;;;;5033490;28;20496;-78
2023/03/28 11:01:18;;;;;;;1999.90;999.90;;;9.50;87.80;;;;;;5032886;28;20053;-77
2023/03/28 11:04:09;;;;;;;1999.90;999.90;;;9.50;88.80;;;;;;5034917;28;20026;-77
2023/03/28 11:06:38;;;;;;;1999.90;999.90;;;9.80;82.50;;;;;;5033352;28;20037;-77
2023/03/28 11:09:29;;;;;;;1999.90;999.90;;;9.90;83.00;;;;;;5033269;28;20075;-77
2023/03/28 11:12:34;;;;;;;1999.90;999.90;;;9.70;82.40;;;;;;5040491;28;20151;-77
2023/03/28 11:15:08;;;;;;;1999.90;999.90;;;9.30;84.40;;;;;;5035056;28;20037;-77
2023/03/28 11:18:09;;;;;;;1999.90;999.90;;;9.80;83.50;;;;;;5034493;28;20867;-77
2023/03/28 11:20:51;;;;;;;1999.90;999.90;;;10.00;82.90;;;;;;5032830;28;20113;-77
2023/03/28 11:23:36;;;;;;;1999.90;999.90;;;10.20;81.60;;;;;;5033242;28;20089;-77
2023/03/28 11:26:14;;;;;;;1999.90;999.90;;;9.80;82.70;;;;;;5032738;28;20113;-77
2023/03/28 11:29:09;;;;;;;1999.90;999.90;;;9.80;82.10;;;;;;5033129;28;20522;-77
2023/03/28 11:31:57;;;;;;;1999.90;999.90;;;9.90;81.90;;;;;;5033411;28;20034;-78
2023/03/28 11:34:35;;;;;;;1999.90;999.90;;;10.20;85.00;;;;;;5042321;28;20042;-78
2023/03/28 11:37:18;;;;;;;1999.90;999.90;;;10.20;83.30;;;;;;5037943;28;20034;-77
2023/03/28 11:39:51;;;;;;;1999.90;999.90;;;9.70;82.70;;;;;;5016864;28;20038;-79
2023/03/28 11:42:26;;;;;;;1999.90;999.90;;;9.50;84.00;;;;;;5030823;28;20747;-78
2023/03/28 11:45:06;;;;;;;1999.90;999.90;;;9.30;85.50;;;;;;5038098;28;20037;-81
2023/03/28 11:47:44;;;;;;;1999.90;999.90;;;9.70;85.70;;;;;;5037514;28;20025;-79
2023/03/28 11:50:13;;;;;;;1999.90;999.90;;;10.30;81.40;;;;;;5039280;28;20061;-79
2023/03/28 11:52:55;;;;;;;1999.90;999.90;;;10.10;80.80;;;;;;5036928;28;20068;-77
2023/03/28 11:55:27;;;;;;;1999.90;999.90;;;9.80;81.00;;;;;;5038534;28;20122;-78
2023/03/28 11:58:02;;;;;;;1999.90;999.90;;;9.80;82.10;;;;;;5037318;28;20128;-79
2023/03/28 12:00:35;;;;;;;1999.90;999.90;;;10.00;81.70;;;;;;5037345;28;20822;-79
2023/03/28 12:03:04;;;;;;;1999.90;999.90;;;10.10;80.10;;;;;;5037277;28;20045;-78
2023/03/28 12:05:46;;;;;;;1999.90;999.90;;;10.30;79.60;;;;;;5038720;28;20033;-79
2023/03/28 12:08:20;;;;;;;1999.90;999.90;;;10.40;83.50;;;;;;5038953;28;20041;-80
2023/03/28 12:10:51;;;;;;;1999.90;999.90;;;10.40;82.20;;;;;;5037471;28;20595;-80
2023/03/28 12:13:32;;;;;;;1999.90;999.90;;;10.40;83.00;;;;;;5036462;28;20543;-81
2023/03/28 12:16:00;;;;;;;1999.90;999.90;;;10.80;78.10;;;;;;5037603;28;20042;-80
2023/03/28 12:18:35;;;;;;;1999.90;999.90;;;10.40;78.20;;;;;;5039857;28;20030;-79
2023/03/28 12:21:32;;;;;;;1999.90;999.90;;;10.30;79.20;;;;;;5038313;28;20467;-79
2023/03/28 12:24:15;;;;;;;1999.90;999.90;;;10.50;78.90;;;;;;5040741;28;20069;-78
2023/03/28 12:27:18;;;;;;;1999.90;999.90;;;10.60;80.90;;;;;;5037827;28;20891;-78